Airfield :
LOGIN :

Register | Disclaimer

   EN    FR    IT 

 










Legend :    VFR   Marginal VFR   IFR   Intensive IFR   Very Intensive IFR
Visi :
Ceiling :
>= 8 km
>= 3000ft
5 to 8 km
1000 to 3000 ft
1500m to 5 km
500 to 1000 ft
800 to 1500m
200 to 500 ft
< 800m
< 200 ft
Symbols :   Thunderstorms  Fog  Heavy snow  Heavy precipitations  Wind > 20 kt
SIGMETs :     Misc.  Thunderstorms  Icing  Turbulence  Mountain Waves  Volcanic Ashes






- Airport Elevation : 204 ft
- IATA code : AGF


LFBA - Agen

CURRENT METAR :
  • 231030Z AUTO VRB03KT 9999 NCD 13/06 Q1025 NOSIG

EXPIRED METARs :
  • 231000Z AUTO 09004KT 050V150 CAVOK 11/07 Q1025 NOSIG
  • 230930Z AUTO VRB03KT CAVOK 10/07 Q1025 NOSIG
  • 230900Z AUTO VRB02KT 9999 SCT002/// 08/08 Q1025 NOSIG
  • 230830Z AUTO VRB02KT 0450 0400 R29/0325D FG VV/// 07/07 Q1025 BECMG CAVOK

TAF TAF LFBA
Valid from the 23 at 09:00 until the 23 at 18:00 UTC


230800Z 2309/2318 VRB02KT 0300 FG VV///
BECMG 2309/2312 CAVOK



MET'MAP, your aeronautical weather chart ! - Copyright ORBIFLY December 2007 - Disclaimer

ORBIFLY MET'MAP TEAM :

Programming & Development : Alexandra Zaïnal
Concept & original design : Baudouin d'Aumeries
Assistance for programming : Marc-Olivier Méhu
Technical & hardware support : Manuel Goepfert

Contact : metmap@orbifly.com




SOURCES & CREDITS :

   NOAA